This is the latest recevied weather packets stored in our database for station/object WD7CGF. If no packets are shown the sender has not sent any weather packets the latest 10 day(s).
| Time | Temp. | Humidity | Pressure | Rain* | Wind** | Luminosity | Snow |
|---|---|---|---|---|---|---|---|
| 1777491501 | 19.44° C | 48% | 1021.5 hPa | 0 mm | - | - | - |
| 1777490909 | 19.44° C | 47% | 1021.6 hPa | 0 mm | - | - | - |
| 1777490301 | 18.89° C | 50% | 1021.6 hPa | 0 mm | - | - | - |
| 1777489709 | 18.33° C | 53% | 1021.6 hPa | 0 mm | - | - | - |
| 1777489101 | 18.33° C | 51% | 1021.7 hPa | 0 mm | - | - | - |
| 1777488509 | 18.33° C | 51% | 1021.7 hPa | 0 mm | - | - | - |
| 1777487915 | 18.33° C | 50% | 1022.1 hPa | 0 mm | - | - | - |
| 1777487299 | 17.78° C | 53% | 1022.2 hPa | 0 mm | - | - | - |
| 1777486706 | 17.22° C | 52% | 1022.2 hPa | 0 mm | - | - | - |
| 1777486114 | 17.22° C | 51% | 1022.3 hPa | 0 mm | - | - | - |
| 1777485508 | 17.22° C | 52% | 1022.3 hPa | 0 mm | - | - | - |
| 1777484916 | 16.67° C | 56% | 1022.3 hPa | 0 mm | - | - | - |
| 1777484304 | 16.67° C | 52% | 1022.3 hPa | 0 mm | - | - | - |
| 1777483714 | 16.11° C | 55% | 1022.5 hPa | 0 mm | - | - | - |
| 1777483104 | 16.11° C | 54% | 1022.5 hPa | 0 mm | - | - | - |
| 1777482515 | 15.56° C | 57% | 1022.6 hPa | 0 mm | - | - | - |
| 1777481900 | 15° C | 58% | 1022.6 hPa | 0 mm | - | - | - |
| 1777481309 | 14.44° C | 62% | 1022.6 hPa | 0 mm | - | - | - |
| 1777480709 | 14.44° C | 60% | 1022.8 hPa | 0 mm | - | - | - |
| 1777480097 | 13.89° C | 63% | 1022.9 hPa | 0 mm | - | - | - |
| 1777479502 | 13.33° C | 61% | 1022.9 hPa | 0 mm | - | - | - |
| 1777478908 | 13.33° C | 64% | 1022.9 hPa | 0 mm | - | - | - |
| 1777478301 | 12.78° C | 64% | 1022.9 hPa | 0 mm | - | - | - |
| 1777477708 | 12.78° C | 64% | 1022.9 hPa | 0 mm | - | - | - |
| 1777477097 | 12.22° C | 65% | 1023.1 hPa | 0 mm | - | - | - |
* Rain since midnight (hover to see other rain measurements)
** Current wind speed in m/s (hover to see current wind gust speed)